Time;durP1;ratioP1;P1;durP2;ratioP2;P2;SDS_P1;SDS_P2;PMS_P1;PMS_P2;Temp;Humidity;BMP_temperature;BMP_pressure;BME280_temperature;BME280_humidity;BME280_pressure;Samples;Min_cycle;Max_cycle;Signal;HPM_P1;HPM_P2
2022/01/04 00:02:07;;;;;;;3.87;1.00;;;11.40;99.90;;;;;;4837474;29;20058;-72
2022/01/04 00:04:36;;;;;;;4.05;0.98;;;11.40;99.90;;;;;;4870394;29;20132;-72
2022/01/04 00:07:05;;;;;;;3.22;0.70;;;11.40;99.90;;;;;;4838408;29;20076;-72
2022/01/04 00:09:59;;;;;;;2.15;0.50;;;11.40;99.90;;;;;;4839301;29;20137;-72
2022/01/04 00:15:16;;;;;;;2.50;0.77;;;11.30;99.90;;;;;;4841551;29;20517;-73
2022/01/04 00:17:44;;;;;;;2.70;0.63;;;11.30;99.90;;;;;;4868505;29;20065;-72
2022/01/04 00:20:12;;;;;;;4.20;1.10;;;11.30;99.90;;;;;;4867532;29;20058;-72
2022/01/04 00:22:41;;;;;;;2.90;0.60;;;11.30;99.90;;;;;;4850179;29;20053;-72
2022/01/04 00:25:10;;;;;;;2.90;0.80;;;11.20;99.90;;;;;;4856391;29;20049;-71
2022/01/04 00:27:40;;;;;;;3.33;0.60;;;11.20;99.90;;;;;;4837835;29;20073;-72
2022/01/04 00:30:09;;;;;;;3.88;0.60;;;11.30;99.90;;;;;;4869859;29;20465;-72
2022/01/04 00:33:02;;;;;;;3.33;0.50;;;11.30;99.90;;;;;;4866662;29;20082;-71
2022/01/04 00:35:30;;;;;;;2.60;0.70;;;11.20;99.90;;;;;;4839756;29;20069;-72
2022/01/04 00:38:00;;;;;;;2.83;0.75;;;11.10;99.90;;;;;;4867776;29;20061;-72
2022/01/04 00:40:28;;;;;;;2.00;0.60;;;11.10;99.90;;;;;;4867868;29;20375;-72
2022/01/04 00:45:52;;;;;;;1.92;0.43;;;11.10;99.90;;;;;;4871933;29;20049;-71
2022/01/04 00:51:09;;;;;;;5.10;0.52;;;11.10;99.90;;;;;;4868683;29;20508;-71
2022/01/04 00:53:38;;;;;;;1.57;0.30;;;11.00;99.90;;;;;;4864916;29;20381;-72
2022/01/04 00:56:06;;;;;;;2.70;0.60;;;11.10;99.90;;;;;;4869791;29;20101;-72
2022/01/04 00:59:01;;;;;;;3.90;0.60;;;11.00;99.90;;;;;;4857711;29;20057;-71
2022/01/04 01:01:30;;;;;;;1.48;0.38;;;11.00;99.90;;;;;;4871926;29;20053;-72
2022/01/04 01:03:59;;;;;;;3.55;0.50;;;11.00;99.90;;;;;;4841950;29;20446;-72
2022/01/04 01:06:28;;;;;;;2.87;0.67;;;10.90;99.90;;;;;;4872778;29;20049;-71
2022/01/04 01:08:57;;;;;;;4.32;0.50;;;10.90;99.90;;;;;;4870694;29;20057;-72
2022/01/04 01:11:26;;;;;;;2.95;0.40;;;10.90;99.90;;;;;;4842842;29;20060;-72
2022/01/04 01:13:55;;;;;;;2.28;0.43;;;10.90;99.90;;;;;;4872432;29;20045;-72
2022/01/04 01:16:24;;;;;;;1.88;0.30;;;10.90;99.90;;;;;;4871607;29;20052;-72
2022/01/04 01:18:53;;;;;;;2.20;0.50;;;10.80;99.90;;;;;;4842477;29;20412;-72
2022/01/04 01:21:22;;;;;;;2.90;0.57;;;10.80;99.90;;;;;;4871740;29;20477;-72
2022/01/04 01:23:51;;;;;;;1.52;0.45;;;10.80;99.90;;;;;;4870825;29;20050;-72
2022/01/04 01:26:19;;;;;;;3.25;0.50;;;10.70;99.90;;;;;;4842193;29;20045;-72
2022/01/04 01:28:48;;;;;;;2.58;0.60;;;10.70;99.90;;;;;;4844317;29;20045;-72
2022/01/04 01:31:16;;;;;;;3.10;0.43;;;10.70;99.90;;;;;;4838953;29;20057;-72
2022/01/04 01:33:46;;;;;;;2.45;0.40;;;10.70;99.90;;;;;;4842813;29;20073;-72
2022/01/04 01:36:15;;;;;;;2.72;0.47;;;10.60;99.90;;;;;;4840092;29;20832;-72
2022/01/04 01:38:43;;;;;;;1.98;0.57;;;10.60;99.90;;;;;;4826946;29;20069;-71
2022/01/04 01:41:12;;;;;;;3.15;0.60;;;10.50;99.90;;;;;;4840140;29;20065;-71
2022/01/04 01:43:40;;;;;;;2.63;0.53;;;10.60;99.90;;;;;;4856228;29;20054;-72
2022/01/04 01:46:09;;;;;;;3.40;0.80;;;10.60;99.90;;;;;;4839140;29;20124;-72
2022/01/04 01:48:38;;;;;;;1.95;0.52;;;10.60;99.90;;;;;;4822866;29;20443;-71
2022/01/04 01:51:08;;;;;;;4.72;0.60;;;10.60;99.90;;;;;;4840202;29;20058;-72
2022/01/04 01:53:36;;;;;;;2.22;0.50;;;10.60;99.90;;;;;;4854065;29;20072;-72
2022/01/04 01:56:08;;;;;;;1.67;0.40;;;10.60;99.90;;;;;;4834869;29;20057;-72
2022/01/04 01:58:39;;;;;;;4.05;0.95;;;10.60;99.90;;;;;;4827657;29;20093;-72
2022/01/04 02:01:09;;;;;;;3.33;0.50;;;10.60;99.90;;;;;;4846036;29;20088;-72
2022/01/04 02:03:38;;;;;;;3.67;0.60;;;10.60;99.90;;;;;;4825906;29;20110;-72
2022/01/04 02:06:09;;;;;;;2.03;0.60;;;10.60;99.90;;;;;;4852879;29;20053;-72
2022/01/04 02:08:38;;;;;;;2.50;0.70;;;10.60;99.90;;;;;;4853475;29;20158;-72
2022/01/04 02:11:10;;;;;;;2.90;0.52;;;10.70;99.90;;;;;;4853284;29;20792;-72
2022/01/04 02:14:04;;;;;;;2.35;0.30;;;10.70;99.90;;;;;;4855131;29;20054;-72
2022/01/04 02:16:33;;;;;;;2.53;0.63;;;10.60;99.90;;;;;;4857613;29;21867;-72
2022/01/04 02:21:56;;;;;;;4.30;0.90;;;10.60;99.90;;;;;;4840291;29;20402;-72
2022/01/04 02:24:25;;;;;;;3.75;0.70;;;10.60;99.90;;;;;;4855079;29;20054;-72
2022/01/04 02:26:53;;;;;;;2.45;0.70;;;10.60;99.90;;;;;;4852106;29;20522;-72
2022/01/04 02:29:22;;;;;;;2.70;0.77;;;10.60;99.90;;;;;;4838271;29;20081;-72
2022/01/04 02:31:50;;;;;;;2.65;0.47;;;10.70;99.90;;;;;;4856697;29;20054;-72
2022/01/04 02:34:20;;;;;;;2.13;0.70;;;10.70;99.90;;;;;;4856516;29;20126;-72
2022/01/04 02:36:48;;;;;;;2.15;0.73;;;10.70;99.90;;;;;;4868407;29;20057;-72
2022/01/04 02:39:43;;;;;;;1.92;0.63;;;10.60;99.90;;;;;;4871876;29;20057;-72
2022/01/04 02:42:12;;;;;;;1.77;0.50;;;10.70;99.90;;;;;;4872130;29;20050;-72
2022/01/04 02:44:40;;;;;;;1.73;0.50;;;10.70;99.90;;;;;;4868892;29;20476;-72
2022/01/04 02:47:09;;;;;;;2.50;0.60;;;10.60;99.90;;;;;;4842041;29;20056;-72
2022/01/04 02:52:30;;;;;;;2.95;0.50;;;10.70;99.90;;;;;;4869079;29;20042;-72
2022/01/04 02:55:00;;;;;;;4.05;0.70;;;10.70;99.90;;;;;;4865883;29;20060;-72
2022/01/04 02:57:28;;;;;;;1.48;0.50;;;10.60;99.90;;;;;;4860411;29;20068;-72
2022/01/04 02:59:56;;;;;;;2.63;0.47;;;10.60;99.90;;;;;;4853286;29;20053;-72
2022/01/04 03:02:25;;;;;;;5.13;1.00;;;10.60;99.90;;;;;;4856365;29;20045;-71
2022/01/04 03:04:54;;;;;;;1.98;0.60;;;10.60;99.90;;;;;;4870083;29;20121;-72
2022/01/04 03:07:23;;;;;;;2.47;0.77;;;10.70;99.90;;;;;;4868514;29;20057;-72
2022/01/04 03:09:51;;;;;;;2.45;0.63;;;10.70;99.90;;;;;;4856605;29;20084;-72
2022/01/04 03:12:21;;;;;;;2.00;0.60;;;10.80;99.90;;;;;;4840313;29;20061;-72
2022/01/04 03:14:50;;;;;;;2.08;0.57;;;10.80;99.90;;;;;;4856465;29;20516;-72
2022/01/04 03:17:18;;;;;;;2.33;0.50;;;10.80;99.90;;;;;;4857168;29;20053;-72
2022/01/04 03:19:47;;;;;;;1.17;0.30;;;10.80;99.90;;;;;;4849582;29;20071;-72
2022/01/04 03:22:15;;;;;;;1.92;0.38;;;10.80;99.90;;;;;;4856559;29;20045;-72
2022/01/04 03:24:43;;;;;;;3.10;0.50;;;10.90;99.90;;;;;;4839274;29;20117;-73
2022/01/04 03:27:13;;;;;;;1.73;0.30;;;10.90;99.90;;;;;;4854547;29;20080;-72
2022/01/04 03:29:42;;;;;;;2.65;0.50;;;10.90;99.90;;;;;;4867286;29;20517;-72
2022/01/04 03:32:11;;;;;;;3.03;0.52;;;10.90;99.90;;;;;;4857440;29;20053;-72
2022/01/04 03:34:40;;;;;;;1.60;0.40;;;10.90;99.90;;;;;;4855780;29;20068;-72
2022/01/04 03:37:08;;;;;;;2.10;0.50;;;10.90;99.90;;;;;;4870605;29;20053;-72
2022/01/04 03:39:36;;;;;;;2.10;0.40;;;10.90;99.90;;;;;;4839002;29;20065;-72
2022/01/04 03:42:09;;;;;;;1.95;0.50;;;10.90;99.90;;;;;;4853860;29;20117;-73
2022/01/04 03:44:37;;;;;;;1.67;0.40;;;10.90;99.90;;;;;;4847703;29;20057;-72
2022/01/04 03:47:08;;;;;;;1.63;0.50;;;10.90;99.90;;;;;;4852888;29;20054;-72
2022/01/04 03:50:02;;;;;;;2.87;0.50;;;10.90;99.90;;;;;;4868403;29;20049;-72
2022/01/04 03:52:31;;;;;;;1.38;0.43;;;10.90;99.90;;;;;;4868118;29;20059;-72
2022/01/04 03:54:59;;;;;;;3.33;0.60;;;10.80;99.90;;;;;;4841497;29;20045;-72
2022/01/04 03:57:27;;;;;;;2.88;0.35;;;10.70;99.90;;;;;;4821725;29;20057;-72
2022/01/04 03:59:55;;;;;;;2.08;0.47;;;10.80;99.90;;;;;;4856757;29;20059;-72
2022/01/04 04:02:24;;;;;;;2.93;0.50;;;10.80;99.90;;;;;;4838015;29;20409;-72
2022/01/04 04:04:53;;;;;;;1.85;0.50;;;10.80;99.90;;;;;;4869350;29;20065;-71
2022/01/04 04:07:24;;;;;;;1.77;0.47;;;10.90;99.90;;;;;;4867355;29;20061;-71
2022/01/04 04:09:53;;;;;;;2.42;0.40;;;10.90;99.90;;;;;;4841641;29;20064;-72
2022/01/04 04:12:23;;;;;;;3.00;0.70;;;11.00;99.90;;;;;;4856233;29;20061;-72
2022/01/04 04:14:52;;;;;;;1.40;0.30;;;11.00;99.90;;;;;;4868597;29;20173;-71
2022/01/04 04:17:21;;;;;;;1.55;0.35;;;11.10;99.90;;;;;;4854829;29;20519;-72
2022/01/04 04:19:51;;;;;;;4.65;0.55;;;11.10;99.90;;;;;;4868000;29;20149;-71
2022/01/04 04:22:20;;;;;;;1.50;0.40;;;11.10;99.90;;;;;;4855249;29;20126;-72
2022/01/04 04:24:49;;;;;;;1.40;0.40;;;11.20;99.90;;;;;;4854728;29;20497;-72
2022/01/04 04:27:17;;;;;;;1.30;0.30;;;11.10;99.90;;;;;;4868662;29;20046;-72
2022/01/04 04:29:45;;;;;;;2.20;0.50;;;11.10;99.90;;;;;;4854390;29;20143;-72
2022/01/04 04:32:14;;;;;;;1.52;0.45;;;11.10;99.90;;;;;;4837249;29;20101;-72
2022/01/04 04:34:43;;;;;;;1.30;0.47;;;11.10;99.90;;;;;;4868727;29;20053;-72
2022/01/04 04:37:13;;;;;;;2.05;0.50;;;11.10;99.90;;;;;;4866915;29;20049;-72
2022/01/04 04:39:41;;;;;;;2.03;0.30;;;11.10;99.90;;;;;;4851975;29;20045;-72
2022/01/04 04:42:09;;;;;;;5.22;0.70;;;11.10;99.90;;;;;;4854706;29;20054;-72
2022/01/04 04:44:39;;;;;;;1.95;0.55;;;11.10;99.90;;;;;;4852435;29;20041;-73
2022/01/04 04:47:07;;;;;;;1.77;0.43;;;11.10;99.90;;;;;;4868653;29;20058;-72
2022/01/04 04:52:30;;;;;;;1.87;0.40;;;11.20;99.90;;;;;;4852262;29;20111;-72
2022/01/04 04:54:58;;;;;;;3.35;0.50;;;11.20;99.90;;;;;;4868855;29;20049;-73
2022/01/04 04:57:27;;;;;;;1.63;0.30;;;11.20;99.90;;;;;;4869435;29;20137;-72
2022/01/04 04:59:55;;;;;;;3.55;0.40;;;11.30;99.90;;;;;;4854453;29;20080;-72
2022/01/04 05:02:24;;;;;;;1.85;0.73;;;11.30;99.90;;;;;;4856229;29;20052;-72
2022/01/04 05:04:53;;;;;;;2.67;0.77;;;11.30;99.90;;;;;;4869127;29;20085;-73
2022/01/04 05:07:26;;;;;;;1.95;0.52;;;11.20;99.90;;;;;;4856232;29;20172;-72
2022/01/04 05:09:55;;;;;;;2.72;0.68;;;11.20;99.90;;;;;;4853423;29;20113;-72
2022/01/04 05:12:24;;;;;;;2.40;0.60;;;11.30;99.90;;;;;;4855154;29;20504;-71
2022/01/04 05:14:52;;;;;;;2.63;0.88;;;11.20;99.90;;;;;;4840271;29;20125;-72
2022/01/04 05:17:21;;;;;;;2.07;0.50;;;11.20;99.90;;;;;;4853911;29;20057;-72
2022/01/04 05:19:49;;;;;;;1.58;0.63;;;11.30;99.90;;;;;;4850591;29;20071;-72
2022/01/04 05:22:19;;;;;;;1.67;0.60;;;11.30;99.90;;;;;;4855074;29;20045;-73
2022/01/04 05:24:47;;;;;;;2.53;0.60;;;11.30;99.90;;;;;;4855187;29;20501;-72
2022/01/04 05:27:17;;;;;;;1.90;0.47;;;11.30;99.90;;;;;;4836854;29;20202;-72
2022/01/04 05:29:45;;;;;;;2.00;0.60;;;11.30;99.90;;;;;;4854293;29;20494;-73
2022/01/04 05:32:14;;;;;;;1.80;0.43;;;11.30;99.90;;;;;;4837260;29;20072;-73
2022/01/04 05:34:43;;;;;;;2.50;0.70;;;11.30;99.90;;;;;;4856190;29;20065;-73
2022/01/04 05:37:12;;;;;;;3.55;0.70;;;11.30;99.90;;;;;;4853718;29;20050;-73
2022/01/04 05:39:44;;;;;;;2.28;0.68;;;11.30;99.90;;;;;;4838158;29;20045;-73
2022/01/04 05:42:12;;;;;;;1.90;0.63;;;11.30;99.90;;;;;;4852549;29;20065;-73
2022/01/04 05:44:42;;;;;;;2.05;0.70;;;11.20;99.90;;;;;;4859372;29;20063;-72
2022/01/04 05:47:10;;;;;;;1.95;0.52;;;11.20;99.90;;;;;;4858352;29;20053;-73
2022/01/04 05:50:05;;;;;;;2.35;0.40;;;11.20;99.90;;;;;;4841002;29;20049;-73
2022/01/04 05:52:35;;;;;;;2.75;0.52;;;11.20;99.90;;;;;;4839530;29;20140;-73
2022/01/04 05:55:06;;;;;;;6.33;0.90;;;11.20;99.90;;;;;;4874164;29;20520;-73
2022/01/04 05:57:35;;;;;;;1.77;0.55;;;11.20;99.90;;;;;;4857941;29;20507;-73
2022/01/04 06:00:07;;;;;;;2.88;0.82;;;11.20;99.90;;;;;;4858449;29;20048;-74
2022/01/04 06:02:39;;;;;;;2.00;0.70;;;11.20;99.90;;;;;;4856976;29;20056;-73
2022/01/04 06:05:08;;;;;;;3.58;1.08;;;11.20;99.90;;;;;;4842700;29;20153;-73
2022/01/04 06:07:38;;;;;;;3.43;0.80;;;11.20;99.90;;;;;;4838632;29;20484;-73
2022/01/04 06:10:09;;;;;;;4.05;1.13;;;11.20;99.90;;;;;;4856812;29;20046;-72
2022/01/04 06:15:26;;;;;;;3.72;1.10;;;11.10;99.90;;;;;;4857660;29;20053;-73
2022/01/04 06:17:54;;;;;;;1.80;0.50;;;11.10;99.90;;;;;;4857581;29;20052;-72
2022/01/04 06:20:23;;;;;;;2.87;0.70;;;11.10;99.90;;;;;;4855008;29;20060;-73
2022/01/04 06:22:54;;;;;;;3.05;0.90;;;11.10;99.90;;;;;;4856365;29;20053;-71
2022/01/04 06:25:24;;;;;;;3.63;1.10;;;11.00;99.90;;;;;;4869296;29;20053;-73
2022/01/04 06:27:53;;;;;;;3.72;1.05;;;10.90;99.90;;;;;;4857217;29;20049;-72
2022/01/04 06:30:24;;;;;;;4.82;1.02;;;11.00;99.90;;;;;;4856570;29;20088;-73
2022/01/04 06:32:55;;;;;;;3.47;0.70;;;11.00;99.90;;;;;;4854815;29;20076;-73
2022/01/04 06:35:25;;;;;;;2.22;0.70;;;11.10;99.90;;;;;;4868761;29;20050;-73
2022/01/04 06:37:54;;;;;;;2.00;0.70;;;11.10;99.90;;;;;;4856369;29;20041;-72
2022/01/04 06:40:22;;;;;;;5.72;0.60;;;11.10;99.90;;;;;;4867516;29;20057;-73
2022/01/04 06:42:50;;;;;;;2.58;0.82;;;11.10;99.90;;;;;;4852281;29;20054;-72
2022/01/04 06:45:19;;;;;;;3.67;0.53;;;11.10;99.90;;;;;;4856584;29;20049;-72
2022/01/04 06:47:48;;;;;;;1.70;0.57;;;11.10;99.90;;;;;;4869948;29;20057;-72
2022/01/04 06:50:18;;;;;;;2.17;0.70;;;11.10;99.90;;;;;;4854785;29;20058;-72
2022/01/04 06:52:47;;;;;;;2.25;0.70;;;11.00;99.90;;;;;;4840846;29;20084;-72
2022/01/04 06:55:15;;;;;;;2.30;0.60;;;11.00;99.90;;;;;;4853027;29;20174;-72
2022/01/04 06:57:44;;;;;;;2.90;0.70;;;11.00;99.90;;;;;;4840768;29;20053;-72
2022/01/04 07:00:14;;;;;;;2.22;0.68;;;11.00;99.90;;;;;;4866107;29;20049;-72
2022/01/04 07:02:44;;;;;;;2.83;0.43;;;11.00;99.90;;;;;;4853414;29;20057;-71
2022/01/04 07:05:12;;;;;;;3.33;0.60;;;11.00;99.90;;;;;;4837664;29;20169;-71
2022/01/04 07:07:42;;;;;;;2.55;0.68;;;11.10;99.90;;;;;;4838995;29;20045;-72
2022/01/04 07:10:12;;;;;;;3.37;0.60;;;11.10;99.90;;;;;;4853167;29;20049;-76
2022/01/04 07:12:40;;;;;;;2.85;0.65;;;11.00;99.90;;;;;;4869649;29;20144;-78
2022/01/04 07:15:10;;;;;;;2.50;0.60;;;11.10;99.90;;;;;;4837360;29;20143;-75
2022/01/04 07:17:41;;;;;;;3.10;0.50;;;11.10;99.90;;;;;;4869334;29;20501;-76
2022/01/04 07:20:11;;;;;;;2.65;0.63;;;11.00;99.90;;;;;;4864442;29;20046;-76
2022/01/04 07:22:39;;;;;;;3.33;0.57;;;11.00;99.90;;;;;;4871477;29;20143;-75
2022/01/04 07:25:11;;;;;;;2.40;0.85;;;11.10;99.90;;;;;;4839028;29;20136;-75
2022/01/04 07:27:40;;;;;;;3.22;0.60;;;11.00;99.90;;;;;;4870076;29;20057;-75
2022/01/04 07:30:10;;;;;;;5.95;0.90;;;11.10;99.90;;;;;;4839969;29;23088;-71
2022/01/04 07:32:39;;;;;;;4.15;1.00;;;11.10;99.90;;;;;;4855324;29;20101;-70
2022/01/04 07:35:08;;;;;;;1.70;0.60;;;11.10;99.90;;;;;;4854682;29;20049;-71
2022/01/04 07:37:37;;;;;;;3.55;0.55;;;11.10;99.90;;;;;;4854888;29;20073;-71
2022/01/04 07:40:09;;;;;;;1.92;0.77;;;11.00;99.90;;;;;;4838980;29;20113;-70
2022/01/04 07:42:38;;;;;;;2.65;0.70;;;11.10;99.90;;;;;;4867216;29;20062;-73
2022/01/04 07:45:07;;;;;;;3.15;0.68;;;11.00;99.90;;;;;;4840083;29;20057;-73
2022/01/04 07:47:35;;;;;;;5.40;1.00;;;11.00;99.90;;;;;;4856866;29;20054;-73
2022/01/04 07:50:04;;;;;;;3.30;0.77;;;11.10;99.90;;;;;;4838764;29;20057;-77
2022/01/04 07:52:33;;;;;;;3.55;0.82;;;11.00;99.90;;;;;;4868694;29;20512;-77
2022/01/04 07:55:02;;;;;;;3.30;0.55;;;11.00;99.90;;;;;;4854849;29;20060;-75
2022/01/04 07:57:31;;;;;;;3.17;0.60;;;11.00;99.90;;;;;;4869056;29;20044;-76
2022/01/04 07:59:59;;;;;;;1.60;0.40;;;11.00;99.90;;;;;;4854120;29;20132;-75
2022/01/04 08:02:28;;;;;;;3.83;0.55;;;11.00;99.90;;;;;;4852556;29;20050;-75
2022/01/04 08:04:56;;;;;;;3.00;0.60;;;11.00;99.90;;;;;;4855728;29;20052;-73
2022/01/04 08:10:18;;;;;;;2.90;0.60;;;11.00;99.90;;;;;;4839785;29;20049;-78
2022/01/04 08:12:48;;;;;;;2.03;0.50;;;11.00;99.90;;;;;;4841244;29;20068;-77
2022/01/04 08:15:17;;;;;;;2.30;0.68;;;11.00;99.90;;;;;;4854446;29;20064;-77
2022/01/04 08:17:47;;;;;;;2.72;0.57;;;11.00;99.90;;;;;;4868748;29;20049;-75
2022/01/04 08:20:17;;;;;;;2.60;0.75;;;11.10;99.90;;;;;;4853963;29;20366;-76
2022/01/04 08:22:46;;;;;;;2.90;0.77;;;11.10;99.90;;;;;;4851634;29;20057;-77
2022/01/04 08:25:15;;;;;;;4.40;1.30;;;11.20;99.90;;;;;;4856039;29;20421;-74
2022/01/04 08:28:35;;;;;;;8.38;1.00;;;11.10;99.90;;;;;;4864653;29;20053;-77
2022/01/04 08:31:07;;;;;;;3.30;0.93;;;11.10;99.90;;;;;;4837060;29;20101;-76
2022/01/04 08:34:16;;;;;;;3.50;1.02;;;11.20;99.90;;;;;;4872678;29;20060;-76
2022/01/04 08:36:45;;;;;;;3.00;1.13;;;11.10;99.90;;;;;;4839305;29;20129;-76
2022/01/04 08:39:15;;;;;;;2.20;0.73;;;11.20;99.90;;;;;;4835643;29;20051;-76
2022/01/04 08:41:45;;;;;;;4.40;1.17;;;11.20;99.90;;;;;;4870458;29;20104;-77
2022/01/04 08:44:15;;;;;;;3.50;0.80;;;11.20;99.90;;;;;;4838741;29;20053;-78
2022/01/04 08:46:44;;;;;;;2.38;0.65;;;11.30;99.90;;;;;;4870062;29;20053;-75
2022/01/04 08:49:13;;;;;;;2.35;0.57;;;11.30;99.90;;;;;;4867995;29;20145;-77
2022/01/04 08:51:41;;;;;;;1.93;0.60;;;11.40;99.90;;;;;;4858170;29;20430;-77
2022/01/04 08:54:10;;;;;;;3.53;0.80;;;11.40;99.90;;;;;;4851239;29;20049;-79
2022/01/04 08:56:39;;;;;;;5.93;0.95;;;11.40;99.90;;;;;;4840013;29;20045;-75
2022/01/04 08:59:34;;;;;;;3.42;0.90;;;11.40;99.90;;;;;;4871932;29;20072;-76
2022/01/04 09:02:02;;;;;;;4.63;1.05;;;11.40;99.90;;;;;;4838681;29;20056;-73
2022/01/04 09:04:31;;;;;;;4.13;0.80;;;11.40;99.90;;;;;;4844319;29;20137;-75
2022/01/04 09:07:01;;;;;;;2.20;0.65;;;11.40;99.90;;;;;;4838450;29;20057;-76
2022/01/04 09:09:30;;;;;;;3.03;0.68;;;11.40;99.90;;;;;;4852065;29;20117;-73
2022/01/04 09:12:21;;;;;;;2.60;0.90;;;11.40;99.90;;;;;;4840406;29;20053;-73
2022/01/04 09:15:03;;;;;;;3.70;1.13;;;11.30;99.90;;;;;;4869123;29;20068;-75
2022/01/04 09:20:19;;;;;;;2.72;0.95;;;11.40;99.90;;;;;;4841358;29;20057;-74
2022/01/04 09:22:47;;;;;;;2.30;0.60;;;11.40;99.90;;;;;;4828255;29;20053;-78
2022/01/04 09:25:15;;;;;;;3.42;0.73;;;11.40;99.90;;;;;;4868745;29;20061;-72
2022/01/04 09:27:45;;;;;;;4.82;0.93;;;11.40;99.90;;;;;;4873219;29;20081;-75
2022/01/04 09:30:14;;;;;;;3.30;0.63;;;11.40;99.90;;;;;;4873948;29;20060;-75
2022/01/04 09:32:43;;;;;;;2.90;0.70;;;11.50;99.90;;;;;;4842325;29;20045;-75
2022/01/04 09:35:13;;;;;;;2.05;0.70;;;11.60;99.90;;;;;;4840625;29;20064;-75
2022/01/04 09:37:43;;;;;;;2.97;0.77;;;11.60;99.90;;;;;;4872813;29;20045;-75
2022/01/04 09:40:12;;;;;;;4.25;0.70;;;11.60;99.90;;;;;;4855228;29;20060;-76
2022/01/04 09:42:41;;;;;;;4.47;0.70;;;;;;;;;;4875170;29;20459;-76
2022/01/04 09:45:10;;;;;;;2.10;0.70;;;11.70;99.90;;;;;;4844440;29;20440;-75
2022/01/04 09:47:40;;;;;;;3.28;0.75;;;11.60;99.90;;;;;;4843724;29;20065;-75
2022/01/04 09:50:11;;;;;;;1.80;0.70;;;11.70;99.90;;;;;;4858815;29;20113;-75
2022/01/04 09:52:44;;;;;;;2.67;0.68;;;11.70;99.90;;;;;;4829167;29;20063;-76
2022/01/04 09:55:13;;;;;;;2.00;0.70;;;11.70;99.90;;;;;;4872706;29;20492;-75
2022/01/04 09:57:43;;;;;;;2.35;0.80;;;11.80;99.90;;;;;;4870132;29;20056;-75
2022/01/04 10:00:15;;;;;;;2.97;1.40;;;11.80;99.90;;;;;;4843036;29;20041;-75
2022/01/04 10:02:45;;;;;;;1.45;0.35;;;11.90;99.90;;;;;;4839499;29;20160;-76
2022/01/04 10:05:17;;;;;;;2.22;0.82;;;11.90;99.90;;;;;;4871245;29;20170;-76
2022/01/04 10:07:48;;;;;;;3.90;0.90;;;11.90;99.90;;;;;;4840256;29;20077;-75
2022/01/04 10:10:20;;;;;;;2.15;0.80;;;11.90;99.90;;;;;;4841002;29;20110;-75
2022/01/04 10:12:52;;;;;;;2.28;0.55;;;11.80;99.90;;;;;;4871004;29;20560;-75
2022/01/04 10:15:33;;;;;;;2.47;0.77;;;11.90;99.90;;;;;;4860460;29;20049;-75
2022/01/04 10:18:21;;;;;;;3.13;0.60;;;11.90;99.90;;;;;;4857411;29;20185;-75
2022/01/04 10:21:16;;;;;;;2.27;0.60;;;11.90;99.90;;;;;;4837625;29;20057;-76
2022/01/04 10:23:50;;;;;;;1.77;0.50;;;11.90;99.90;;;;;;4857713;29;20073;-75
2022/01/04 10:26:29;;;;;;;4.03;0.73;;;11.90;99.90;;;;;;4874218;29;20058;-76
2022/01/04 10:28:59;;;;;;;2.72;0.52;;;12.00;99.90;;;;;;4842127;29;20060;-75
2022/01/04 10:31:27;;;;;;;3.22;0.73;;;12.00;99.90;;;;;;4872760;29;20049;-75
2022/01/04 10:34:01;;;;;;;1.70;0.50;;;12.00;99.90;;;;;;4841390;29;20076;-75
2022/01/04 10:36:38;;;;;;;3.03;0.80;;;12.10;99.90;;;;;;4873601;29;20068;-75
2022/01/04 10:39:09;;;;;;;1.85;0.50;;;12.10;99.90;;;;;;4843500;29;20128;-75
2022/01/04 10:41:38;;;;;;;2.00;0.70;;;12.20;99.90;;;;;;4873588;29;20052;-75
2022/01/04 10:44:10;;;;;;;3.05;1.02;;;12.20;99.90;;;;;;4872841;29;20196;-75
2022/01/04 10:46:42;;;;;;;1.73;0.67;;;12.20;99.90;;;;;;4842911;29;20112;-75
2022/01/04 10:49:20;;;;;;;3.60;0.77;;;12.20;99.90;;;;;;4843877;29;20050;-75
2022/01/04 10:52:06;;;;;;;2.20;0.88;;;12.20;99.90;;;;;;4873434;29;20072;-75
2022/01/04 10:54:35;;;;;;;3.30;1.00;;;12.20;99.90;;;;;;4842958;29;20053;-75
2022/01/04 10:57:05;;;;;;;2.15;0.60;;;12.20;99.90;;;;;;4855666;29;20085;-75
2022/01/04 10:59:34;;;;;;;1.90;0.70;;;12.20;99.90;;;;;;4843610;29;20056;-75
2022/01/04 11:02:04;;;;;;;3.20;1.25;;;12.20;99.90;;;;;;4840664;29;20053;-75
2022/01/04 11:04:34;;;;;;;3.65;1.15;;;12.20;99.90;;;;;;4841925;29;20133;-75
2022/01/04 11:07:04;;;;;;;2.15;0.70;;;12.20;99.90;;;;;;4827494;29;20113;-75
2022/01/04 11:09:34;;;;;;;2.22;0.57;;;12.20;99.90;;;;;;4876913;29;20052;-75
2022/01/04 11:12:03;;;;;;;1.90;0.60;;;12.20;99.90;;;;;;4871706;29;20049;-75
2022/01/04 11:14:32;;;;;;;2.00;0.80;;;12.20;99.90;;;;;;4875762;29;20050;-75
2022/01/04 11:17:02;;;;;;;2.40;0.60;;;12.30;99.90;;;;;;4838288;29;20414;-75
2022/01/04 11:19:32;;;;;;;3.40;0.77;;;12.30;99.90;;;;;;4839979;29;20065;-76
2022/01/04 11:22:04;;;;;;;2.72;0.85;;;12.40;99.90;;;;;;4839797;29;20436;-75
2022/01/04 11:24:37;;;;;;;2.30;0.90;;;12.40;99.90;;;;;;4860222;29;20041;-81
2022/01/04 11:27:35;;;;;;;4.97;1.60;;;12.40;99.90;;;;;;4862332;29;20061;-91
2022/01/04 11:30:08;;;;;;;4.35;1.27;;;;;;;;;;4854003;29;20100;-83
2022/01/04 11:32:39;;;;;;;2.20;0.80;;;12.50;99.90;;;;;;4838659;29;20425;-83
2022/01/04 11:38:06;;;;;;;3.73;1.30;;;12.60;99.90;;;;;;4836815;29;20137;-84
2022/01/04 11:40:36;;;;;;;2.63;0.90;;;12.50;99.90;;;;;;4841498;29;20045;-83
2022/01/04 11:45:59;;;;;;;5.32;1.10;;;12.50;99.90;;;;;;4861959;29;20049;-83
2022/01/04 11:49:06;;;;;;;2.55;0.75;;;12.50;99.90;;;;;;4836647;29;20054;-83
2022/01/04 11:51:41;;;;;;;2.63;0.80;;;12.50;99.90;;;;;;4846396;29;20096;-83
2022/01/04 11:54:21;;;;;;;2.97;1.10;;;12.50;99.90;;;;;;4836840;29;20061;-83
2022/01/04 11:56:53;;;;;;;2.08;0.60;;;12.50;99.90;;;;;;4834146;29;20049;-84
2022/01/04 11:59:23;;;;;;;3.13;0.70;;;12.50;99.90;;;;;;4837706;29;20061;-83
2022/01/04 12:01:53;;;;;;;5.05;0.80;;;12.60;99.90;;;;;;4843308;29;20467;-83
2022/01/04 12:04:48;;;;;;;2.87;0.80;;;12.60;99.90;;;;;;4839220;29;20076;-83
2022/01/04 12:07:46;;;;;;;3.38;0.75;;;12.60;99.90;;;;;;4866519;29;20256;-84
2022/01/04 12:10:37;;;;;;;2.13;0.50;;;12.70;99.90;;;;;;4840066;29;20065;-84
2022/01/04 12:13:11;;;;;;;2.30;0.70;;;12.70;99.90;;;;;;4843242;29;20525;-84
2022/01/04 12:15:57;;;;;;;2.72;0.95;;;12.70;99.90;;;;;;4842188;29;20060;-84
2022/01/04 12:18:59;;;;;;;2.73;0.90;;;12.70;99.90;;;;;;4843182;29;20046;-82
2022/01/04 12:22:03;;;;;;;2.08;0.60;;;12.80;99.90;;;;;;4843131;29;20072;-80
2022/01/04 12:27:40;;;;;;;2.22;0.70;;;12.70;99.90;;;;;;4837422;29;20067;-83
2022/01/04 12:30:26;;;;;;;2.00;0.60;;;12.70;99.90;;;;;;4821418;29;20505;-83
2022/01/04 12:33:35;;;;;;;2.20;0.50;;;12.70;99.90;;;;;;4841306;29;20041;-83
2022/01/04 12:36:06;;;;;;;3.63;0.60;;;12.70;99.90;;;;;;4848692;29;20065;-83
2022/01/04 12:38:35;;;;;;;2.45;0.60;;;12.70;99.90;;;;;;4846950;29;20049;-83
2022/01/04 12:41:07;;;;;;;2.15;0.52;;;12.70;99.90;;;;;;4823391;29;20053;-83
2022/01/04 12:43:38;;;;;;;2.15;0.52;;;12.70;99.90;;;;;;4856926;29;20139;-82
2022/01/04 12:46:07;;;;;;;2.40;0.57;;;12.60;99.90;;;;;;4837401;29;20082;-83
2022/01/04 12:48:46;;;;;;;3.90;0.60;;;12.70;99.90;;;;;;4841037;29;20049;-82
2022/01/04 12:51:24;;;;;;;1.65;0.60;;;12.70;99.90;;;;;;4822910;29;20394;-82
2022/01/04 12:53:53;;;;;;;2.58;0.60;;;12.70;99.90;;;;;;4849051;29;20056;-82
2022/01/04 12:56:22;;;;;;;1.48;0.50;;;12.80;99.90;;;;;;4843964;29;20057;-82
2022/01/04 12:58:52;;;;;;;2.80;0.70;;;12.80;99.90;;;;;;4847776;29;20065;-82
2022/01/04 13:01:23;;;;;;;3.70;0.70;;;12.80;99.90;;;;;;4844534;29;20394;-82
2022/01/04 13:03:54;;;;;;;2.60;0.65;;;12.80;99.90;;;;;;4842610;29;20056;-82
2022/01/04 13:06:47;;;;;;;2.00;0.55;;;12.70;99.90;;;;;;4842495;29;20572;-82
2022/01/04 13:09:19;;;;;;;7.70;0.90;;;12.80;99.90;;;;;;4843050;29;20054;-82
2022/01/04 13:11:49;;;;;;;3.27;0.70;;;12.80;99.90;;;;;;4844458;29;20065;-82
2022/01/04 13:14:22;;;;;;;2.42;0.70;;;12.80;99.90;;;;;;4843926;29;20056;-82
2022/01/04 13:16:59;;;;;;;3.00;0.60;;;12.80;99.90;;;;;;4841377;29;20053;-82
2022/01/04 13:19:30;;;;;;;2.65;0.80;;;12.80;99.90;;;;;;4833811;29;20069;-82
2022/01/04 13:22:03;;;;;;;2.58;0.75;;;12.80;99.90;;;;;;4846400;29;20046;-82
2022/01/04 13:27:52;;;;;;;2.10;0.50;;;12.80;99.90;;;;;;4854409;29;20057;-82
2022/01/04 13:30:25;;;;;;;2.83;0.95;;;12.80;99.90;;;;;;4847720;29;20093;-82
2022/01/04 13:32:56;;;;;;;2.15;0.60;;;12.70;99.90;;;;;;4838402;29;20061;-82
2022/01/04 13:35:30;;;;;;;1.45;0.40;;;12.70;99.90;;;;;;4843167;29;20144;-82
2022/01/04 13:38:00;;;;;;;2.33;0.83;;;12.50;99.90;;;;;;4853641;29;20068;-83
2022/01/04 13:40:32;;;;;;;2.65;0.60;;;12.60;99.90;;;;;;4841923;29;20056;-81
2022/01/04 13:45:59;;;;;;;2.17;0.52;;;12.50;99.90;;;;;;4848091;29;20057;-82
2022/01/04 13:48:29;;;;;;;2.70;0.70;;;12.50;99.90;;;;;;4841894;29;20053;-81
2022/01/04 13:51:08;;;;;;;2.57;0.60;;;12.50;99.90;;;;;;4859527;29;20058;-82
2022/01/04 13:53:38;;;;;;;3.53;0.70;;;12.50;99.90;;;;;;4824594;29;20048;-82